SAZB/BHI METAR and TAF weather

Enter ICAO airport designator
Station Type Date Time Source
SAZB METAR 2021/01/15 02:32 UTC NOAA

SAZB 150232Z 05006KT 9999 TS FEW035CB SCT035 OVC080 23/11 Q1010


Station Type Date Time Source
SAZB Decoded METAR 2021/01/15 02:32 UTC NOAA

Bahia Blanca Aerodrome, Argentina (SAZB) 38-44S 062-10W 83M
Jan 14, 2021 - 09:32 PM EST / 2021.01.15 0232 UTC
Wind: from the NE (050 degrees) at 7 MPH (6 KT):0
Visibility: greater than 7 mile(s):0
Sky conditions: overcast
Weather: thunder; Cumulonimbus clouds observed
Temperature: 73 F (23 C)
Dew Point: 51 F (11 C)
Relative Humidity: 46%
Pressure (altimeter): 29.83 in. Hg (1010 hPa)
ob: SAZB 150232Z 05006KT 9999 TS FEW035CB SCT035 OVC080 23/11 Q1010
cycle: 2

Station Type Date Time Source
SAZB TAF 2021/01/13 02:39 UTC NOAA

TAF
AMD SAZB 130130Z 1302/1324 03005KT CAVOK TX30/1318Z TN10/1308Z
TEMPO 1304/1309 07005KT
BECMG 1317/1320 05015KT

Example: see airport list